sensor_id;sensor_type;location;lat;lon;timestamp;pressure;altitude;pressure_sealevel;temperature;humidity
80648;BME280;70012;0.000;0.000;2023-09-19T00:01:56;100043.03;;;14.54;80.30
80648;BME280;70012;0.000;0.000;2023-09-19T00:04:24;100031.53;;;14.47;80.41
80648;BME280;70012;0.000;0.000;2023-09-19T00:06:57;100024.41;;;14.35;80.70
80648;BME280;70012;0.000;0.000;2023-09-19T00:09:24;100047.19;;;14.46;80.74
80648;BME280;70012;0.000;0.000;2023-09-19T00:11:54;100025.81;;;14.33;80.80
80648;BME280;70012;0.000;0.000;2023-09-19T00:14:24;100023.94;;;14.28;80.91
80648;BME280;70012;0.000;0.000;2023-09-19T00:16:51;100050.84;;;14.36;80.57
80648;BME280;70012;0.000;0.000;2023-09-19T00:19:18;100054.72;;;14.35;80.67
80648;BME280;70012;0.000;0.000;2023-09-19T00:21:45;100058.56;;;14.39;80.94
80648;BME280;70012;0.000;0.000;2023-09-19T00:24:13;100065.72;;;14.40;81.06
80648;BME280;70012;0.000;0.000;2023-09-19T00:26:40;100057.72;;;14.39;80.98
80648;BME280;70012;0.000;0.000;2023-09-19T00:29:09;100046.44;;;14.35;80.66
80648;BME280;70012;0.000;0.000;2023-09-19T00:31:37;100029.94;;;14.35;80.28
80648;BME280;70012;0.000;0.000;2023-09-19T00:34:04;100008.03;;;14.20;80.25
80648;BME280;70012;0.000;0.000;2023-09-19T00:36:31;100032.72;;;14.30;80.29
80648;BME280;70012;0.000;0.000;2023-09-19T00:38:58;100030.81;;;14.25;80.30
80648;BME280;70012;0.000;0.000;2023-09-19T00:41:25;100043.44;;;14.37;80.18
80648;BME280;70012;0.000;0.000;2023-09-19T00:43:51;100035.53;;;14.25;79.95
80648;BME280;70012;0.000;0.000;2023-09-19T00:46:18;100046.53;;;14.25;80.31
80648;BME280;70012;0.000;0.000;2023-09-19T00:48:46;100062.47;;;14.33;80.21
80648;BME280;70012;0.000;0.000;2023-09-19T00:51:13;100059.16;;;14.31;80.35
80648;BME280;70012;0.000;0.000;2023-09-19T00:53:40;100065.75;;;14.30;80.30
80648;BME280;70012;0.000;0.000;2023-09-19T00:56:13;100061.41;;;14.24;80.38
80648;BME280;70012;0.000;0.000;2023-09-19T00:58:41;100070.13;;;14.36;80.48
80648;BME280;70012;0.000;0.000;2023-09-19T01:01:10;100053.09;;;14.29;80.07
80648;BME280;70012;0.000;0.000;2023-09-19T01:03:38;100051.50;;;14.23;80.39
80648;BME280;70012;0.000;0.000;2023-09-19T01:06:06;100054.75;;;14.30;79.92
80648;BME280;70012;0.000;0.000;2023-09-19T01:08:34;100073.94;;;14.46;80.16
80648;BME280;70012;0.000;0.000;2023-09-19T01:11:13;100085.47;;;14.53;80.14
80648;BME280;70012;0.000;0.000;2023-09-19T01:14:17;100075.50;;;14.57;79.60
80648;BME280;70012;0.000;0.000;2023-09-19T01:16:57;100072.78;;;14.52;79.52
80648;BME280;70012;0.000;0.000;2023-09-19T01:20:01;100085.91;;;14.70;79.72
80648;BME280;70012;0.000;0.000;2023-09-19T01:23:04;100091.41;;;14.70;79.17
80648;BME280;70012;0.000;0.000;2023-09-19T01:25:50;100083.19;;;14.65;79.22
80648;BME280;70012;0.000;0.000;2023-09-19T01:30:58;100085.91;;;14.70;78.60
80648;BME280;70012;0.000;0.000;2023-09-19T01:33:27;100093.56;;;14.79;78.41
80648;BME280;70012;0.000;0.000;2023-09-19T01:36:00;100105.06;;;14.86;77.78
80648;BME280;70012;0.000;0.000;2023-09-19T01:38:28;100094.38;;;14.79;77.22
80648;BME280;70012;0.000;0.000;2023-09-19T01:41:03;100105.63;;;14.88;76.10
80648;BME280;70012;0.000;0.000;2023-09-19T01:43:41;100101.78;;;14.84;76.16
80648;BME280;70012;0.000;0.000;2023-09-19T01:46:15;100113.03;;;14.87;76.28
80648;BME280;70012;0.000;0.000;2023-09-19T01:48:53;100116.59;;;14.93;75.63
80648;BME280;70012;0.000;0.000;2023-09-19T01:51:33;100108.63;;;14.92;74.24
80648;BME280;70012;0.000;0.000;2023-09-19T01:54:03;100125.91;;;14.97;73.32
80648;BME280;70012;0.000;0.000;2023-09-19T01:56:57;100110.84;;;14.89;73.01
80648;BME280;70012;0.000;0.000;2023-09-19T01:59:34;100099.59;;;14.81;73.42
80648;BME280;70012;0.000;0.000;2023-09-19T02:02:03;100117.19;;;14.85;71.73
80648;BME280;70012;0.000;0.000;2023-09-19T02:04:32;100130.13;;;14.89;72.30
80648;BME280;70012;0.000;0.000;2023-09-19T02:07:00;100104.66;;;14.68;71.95
80648;BME280;70012;0.000;0.000;2023-09-19T02:09:27;100111.78;;;14.69;72.24
80648;BME280;70012;0.000;0.000;2023-09-19T02:11:54;100123.41;;;14.66;72.31
80648;BME280;70012;0.000;0.000;2023-09-19T02:14:23;100152.53;;;14.78;73.04
80648;BME280;70012;0.000;0.000;2023-09-19T02:16:50;100146.47;;;14.76;72.92
80648;BME280;70012;0.000;0.000;2023-09-19T02:19:17;100143.50;;;14.67;72.97
80648;BME280;70012;0.000;0.000;2023-09-19T02:21:55;100144.91;;;14.59;72.88
80648;BME280;70012;0.000;0.000;2023-09-19T02:24:28;100157.59;;;14.60;73.03
80648;BME280;70012;0.000;0.000;2023-09-19T02:27:03;100157.03;;;14.58;73.27
80648;BME280;70012;0.000;0.000;2023-09-19T02:29:33;100157.63;;;14.55;73.17
80648;BME280;70012;0.000;0.000;2023-09-19T02:32:03;100157.88;;;14.53;73.35
80648;BME280;70012;0.000;0.000;2023-09-19T02:34:31;100157.06;;;14.53;73.86
80648;BME280;70012;0.000;0.000;2023-09-19T02:36:59;100160.94;;;14.52;74.37
80648;BME280;70012;0.000;0.000;2023-09-19T02:39:30;100144.47;;;14.41;73.85
80648;BME280;70012;0.000;0.000;2023-09-19T02:41:58;100145.06;;;14.33;74.31
80648;BME280;70012;0.000;0.000;2023-09-19T02:44:26;100141.22;;;14.29;74.89
80648;BME280;70012;0.000;0.000;2023-09-19T02:46:54;100129.13;;;14.25;74.93
80648;BME280;70012;0.000;0.000;2023-09-19T02:49:24;100165.66;;;14.41;75.13
80648;BME280;70012;0.000;0.000;2023-09-19T02:51:55;100145.69;;;14.20;75.34
80648;BME280;70012;0.000;0.000;2023-09-19T02:54:27;100155.84;;;14.19;75.32
80648;BME280;70012;0.000;0.000;2023-09-19T02:56:56;100137.44;;;14.09;75.39
80648;BME280;70012;0.000;0.000;2023-09-19T02:59:29;100174.00;;;14.25;75.51
80648;BME280;70012;0.000;0.000;2023-09-19T03:01:59;100132.84;;;13.95;75.97
80648;BME280;70012;0.000;0.000;2023-09-19T03:04:29;100178.75;;;14.15;76.42
80648;BME280;70012;0.000;0.000;2023-09-19T03:06:56;100169.94;;;14.13;76.76
80648;BME280;70012;0.000;0.000;2023-09-19T03:09:27;100156.22;;;13.97;76.42
80648;BME280;70012;0.000;0.000;2023-09-19T03:11:54;100148.28;;;13.85;76.85
80648;BME280;70012;0.000;0.000;2023-09-19T03:14:22;100151.34;;;13.79;77.37
80648;BME280;70012;0.000;0.000;2023-09-19T03:16:50;100179.91;;;13.98;77.39
80648;BME280;70012;0.000;0.000;2023-09-19T03:19:18;100165.63;;;13.86;77.20
80648;BME280;70012;0.000;0.000;2023-09-19T03:21:52;100160.13;;;13.75;77.22
80648;BME280;70012;0.000;0.000;2023-09-19T03:24:33;100168.94;;;13.77;77.22
80648;BME280;70012;0.000;0.000;2023-09-19T03:29:37;100184.88;;;13.86;77.24
80648;BME280;70012;0.000;0.000;2023-09-19T03:32:05;100191.22;;;13.81;77.31
80648;BME280;70012;0.000;0.000;2023-09-19T03:34:33;100178.88;;;13.73;76.82
80648;BME280;70012;0.000;0.000;2023-09-19T03:37:01;100161.84;;;13.61;77.02
80648;BME280;70012;0.000;0.000;2023-09-19T03:39:30;100178.34;;;13.66;77.50
80648;BME280;70012;0.000;0.000;2023-09-19T03:41:58;100182.19;;;13.65;77.26
80648;BME280;70012;0.000;0.000;2023-09-19T03:44:25;100175.03;;;13.64;77.36
80648;BME280;70012;0.000;0.000;2023-09-19T03:46:52;100167.06;;;13.63;76.91
80648;BME280;70012;0.000;0.000;2023-09-19T03:49:22;100186.31;;;13.68;76.80
80648;BME280;70012;0.000;0.000;2023-09-19T03:51:49;100156.34;;;13.56;76.96
80648;BME280;70012;0.000;0.000;2023-09-19T03:54:16;100170.63;;;13.63;77.15
80648;BME280;70012;0.000;0.000;2023-09-19T03:56:46;100184.13;;;13.65;76.36
80648;BME280;70012;0.000;0.000;2023-09-19T03:59:13;100175.59;;;13.61;76.28
80648;BME280;70012;0.000;0.000;2023-09-19T04:01:40;100190.44;;;13.65;76.56
80648;BME280;70012;0.000;0.000;2023-09-19T04:04:08;100189.88;;;13.63;76.64
80648;BME280;70012;0.000;0.000;2023-09-19T04:06:35;100181.66;;;13.53;76.61
80648;BME280;70012;0.000;0.000;2023-09-19T04:09:03;100194.28;;;13.59;76.71
80648;BME280;70012;0.000;0.000;2023-09-19T04:11:30;100186.59;;;13.56;76.80
80648;BME280;70012;0.000;0.000;2023-09-19T04:13:57;100187.44;;;13.51;77.52
80648;BME280;70012;0.000;0.000;2023-09-19T04:16:24;100182.50;;;13.43;77.71
80648;BME280;70012;0.000;0.000;2023-09-19T04:18:52;100196.25;;;13.43;77.71
80648;BME280;70012;0.000;0.000;2023-09-19T04:21:18;100177.25;;;13.31;78.06
80648;BME280;70012;0.000;0.000;2023-09-19T04:23:45;100177.53;;;13.24;78.15
80648;BME280;70012;0.000;0.000;2023-09-19T04:26:12;100182.47;;;13.27;78.83
80648;BME280;70012;0.000;0.000;2023-09-19T04:28:39;100185.50;;;13.26;78.95
80648;BME280;70012;0.000;0.000;2023-09-19T04:31:07;100165.72;;;13.13;78.85
80648;BME280;70012;0.000;0.000;2023-09-19T04:33:34;100189.59;;;13.18;78.73
80648;BME280;70012;0.000;0.000;2023-09-19T04:36:02;100200.06;;;13.21;79.28
80648;BME280;70012;0.000;0.000;2023-09-19T04:38:50;100188.50;;;13.09;80.02
80648;BME280;70012;0.000;0.000;2023-09-19T04:41:17;100190.44;;;13.13;79.93
80648;BME280;70012;0.000;0.000;2023-09-19T04:43:43;100199.22;;;13.10;79.73
80648;BME280;70012;0.000;0.000;2023-09-19T04:46:10;100206.09;;;13.13;79.67
80648;BME280;70012;0.000;0.000;2023-09-19T04:48:40;100208.56;;;13.09;79.90
80648;BME280;70012;0.000;0.000;2023-09-19T04:51:11;100184.38;;;12.91;79.79
80648;BME280;70012;0.000;0.000;2023-09-19T04:53:37;100178.88;;;12.91;79.62
80648;BME280;70012;0.000;0.000;2023-09-19T04:56:04;100178.59;;;12.87;79.41
80648;BME280;70012;0.000;0.000;2023-09-19T04:58:34;100191.81;;;12.90;79.33
80648;BME280;70012;0.000;0.000;2023-09-19T05:01:01;100200.84;;;12.91;79.32
80648;BME280;70012;0.000;0.000;2023-09-19T05:03:28;100171.16;;;12.72;79.80
80648;BME280;70012;0.000;0.000;2023-09-19T05:05:55;100193.16;;;12.82;79.96
80648;BME280;70012;0.000;0.000;2023-09-19T05:08:22;100206.06;;;12.87;80.41
80648;BME280;70012;0.000;0.000;2023-09-19T05:10:49;100217.91;;;12.88;80.92
80648;BME280;70012;0.000;0.000;2023-09-19T05:13:17;100215.13;;;12.82;80.18
80648;BME280;70012;0.000;0.000;2023-09-19T05:15:47;100207.97;;;12.71;80.45
80648;BME280;70012;0.000;0.000;2023-09-19T05:18:14;100221.16;;;12.74;80.13
80648;BME280;70012;0.000;0.000;2023-09-19T05:20:42;100210.69;;;12.61;79.84
80648;BME280;70012;0.000;0.000;2023-09-19T05:23:10;100213.97;;;12.58;80.22
80648;BME280;70012;0.000;0.000;2023-09-19T05:25:41;100226.06;;;12.62;80.49
80648;BME280;70012;0.000;0.000;2023-09-19T05:28:10;100257.41;;;12.71;80.64
80648;BME280;70012;0.000;0.000;2023-09-19T05:30:42;100213.41;;;12.51;80.08
80648;BME280;70012;0.000;0.000;2023-09-19T05:33:14;100217.78;;;12.46;80.38
80648;BME280;70012;0.000;0.000;2023-09-19T05:35:41;100232.09;;;12.54;80.39
80648;BME280;70012;0.000;0.000;2023-09-19T05:38:08;100241.97;;;12.55;80.67
80648;BME280;70012;0.000;0.000;2023-09-19T05:40:35;100233.19;;;12.53;80.66
80648;BME280;70012;0.000;0.000;2023-09-19T05:43:02;100248.00;;;12.52;80.69
80648;BME280;70012;0.000;0.000;2023-09-19T05:45:32;100251.03;;;12.55;80.94
80648;BME280;70012;0.000;0.000;2023-09-19T05:48:13;100275.50;;;12.62;80.97
80648;BME280;70012;0.000;0.000;2023-09-19T05:50:43;100270.03;;;12.67;81.13
80648;BME280;70012;0.000;0.000;2023-09-19T05:53:19;100264.50;;;12.62;81.14
80648;BME280;70012;0.000;0.000;2023-09-19T05:55:49;100268.91;;;12.68;81.16
80648;BME280;70012;0.000;0.000;2023-09-19T05:58:17;100274.19;;;12.75;81.53
80648;BME280;70012;0.000;0.000;2023-09-19T06:00:45;100280.25;;;12.82;81.55
80648;BME280;70012;0.000;0.000;2023-09-19T06:03:15;100284.34;;;12.79;81.33
80648;BME280;70012;0.000;0.000;2023-09-19T06:05:45;100286.03;;;12.80;81.17
80648;BME280;70012;0.000;0.000;2023-09-19T06:08:14;100277.72;;;12.75;80.51
80648;BME280;70012;0.000;0.000;2023-09-19T06:10:42;100273.38;;;12.74;80.93
80648;BME280;70012;0.000;0.000;2023-09-19T06:13:12;100251.91;;;12.71;81.05
80648;BME280;70012;0.000;0.000;2023-09-19T06:15:46;100285.19;;;12.85;81.00
80648;BME280;70012;0.000;0.000;2023-09-19T06:18:14;100256.88;;;12.74;81.03
80648;BME280;70012;0.000;0.000;2023-09-19T06:20:47;100306.41;;;13.05;80.67
80648;BME280;70012;0.000;0.000;2023-09-19T06:23:15;100321.25;;;13.04;80.47
80648;BME280;70012;0.000;0.000;2023-09-19T06:25:43;100319.59;;;13.03;79.96
80648;BME280;70012;0.000;0.000;2023-09-19T06:28:10;100291.53;;;12.91;80.13
80648;BME280;70012;0.000;0.000;2023-09-19T06:30:41;100284.94;;;12.92;80.38
80648;BME280;70012;0.000;0.000;2023-09-19T06:33:09;100305.56;;;13.05;79.74
80648;BME280;70012;0.000;0.000;2023-09-19T06:35:38;100301.19;;;13.09;80.61
80648;BME280;70012;0.000;0.000;2023-09-19T06:38:05;100312.47;;;13.23;80.20
80648;BME280;70012;0.000;0.000;2023-09-19T06:40:34;100310.28;;;13.20;79.65
80648;BME280;70012;0.000;0.000;2023-09-19T06:43:01;100308.06;;;13.22;79.61
80648;BME280;70012;0.000;0.000;2023-09-19T06:45:31;100319.63;;;13.29;79.53
80648;BME280;70012;0.000;0.000;2023-09-19T06:47:58;100328.44;;;13.36;79.30
80648;BME280;70012;0.000;0.000;2023-09-19T06:50:29;100331.78;;;13.49;78.93
80648;BME280;70012;0.000;0.000;2023-09-19T06:52:57;100329.88;;;13.54;79.13
80648;BME280;70012;0.000;0.000;2023-09-19T06:55:27;100324.38;;;13.54;78.98
80648;BME280;70012;0.000;0.000;2023-09-19T06:57:55;100317.22;;;13.58;78.56
80648;BME280;70012;0.000;0.000;2023-09-19T07:00:23;100319.72;;;13.70;77.61
80648;BME280;70012;0.000;0.000;2023-09-19T07:03:04;100335.66;;;13.89;77.94
80648;BME280;70012;0.000;0.000;2023-09-19T07:05:35;100316.41;;;13.84;78.16
80648;BME280;70012;0.000;0.000;2023-09-19T07:08:10;100317.50;;;13.98;77.39
80648;BME280;70012;0.000;0.000;2023-09-19T07:10:40;100332.34;;;14.18;77.82
80648;BME280;70012;0.000;0.000;2023-09-19T07:13:08;100320.78;;;14.16;77.72
80648;BME280;70012;0.000;0.000;2023-09-19T07:15:38;100318.84;;;14.21;76.48
80648;BME280;70012;0.000;0.000;2023-09-19T07:18:08;100337.25;;;14.41;76.85
80648;BME280;70012;0.000;0.000;2023-09-19T07:20:40;100329.50;;;14.49;76.44
80648;BME280;70012;0.000;0.000;2023-09-19T07:23:19;100327.84;;;14.53;76.54
80648;BME280;70012;0.000;0.000;2023-09-19T07:25:49;100314.63;;;14.55;75.75
80648;BME280;70012;0.000;0.000;2023-09-19T07:28:16;100331.16;;;14.65;75.71
80648;BME280;70012;0.000;0.000;2023-09-19T07:30:43;100347.06;;;14.79;75.70
80648;BME280;70012;0.000;0.000;2023-09-19T07:33:11;100351.97;;;14.92;75.85
80648;BME280;70012;0.000;0.000;2023-09-19T07:35:54;100327.75;;;14.84;75.47
80648;BME280;70012;0.000;0.000;2023-09-19T07:38:21;100346.94;;;15.10;75.43
80648;BME280;70012;0.000;0.000;2023-09-19T07:41:02;100354.31;;;15.19;74.70
80648;BME280;70012;0.000;0.000;2023-09-19T07:43:29;100345.50;;;15.23;73.76
80648;BME280;70012;0.000;0.000;2023-09-19T07:45:57;100349.06;;;15.28;73.21
80648;BME280;70012;0.000;0.000;2023-09-19T07:48:28;100333.06;;;15.25;73.58
80648;BME280;70012;0.000;0.000;2023-09-19T07:50:55;100340.75;;;15.33;71.66
80648;BME280;70012;0.000;0.000;2023-09-19T07:53:22;100339.59;;;15.40;72.23
80648;BME280;70012;0.000;0.000;2023-09-19T07:55:52;100352.69;;;15.58;73.11
80648;BME280;70012;0.000;0.000;2023-09-19T07:58:22;100362.59;;;15.64;71.31
80648;BME280;70012;0.000;0.000;2023-09-19T08:00:49;100340.59;;;15.54;70.54
80648;BME280;70012;0.000;0.000;2023-09-19T08:03:16;100346.03;;;15.64;68.75
80648;BME280;70012;0.000;0.000;2023-09-19T08:05:45;100340.50;;;15.64;68.32
80648;BME280;70012;0.000;0.000;2023-09-19T08:08:13;100360.28;;;15.77;69.88
80648;BME280;70012;0.000;0.000;2023-09-19T08:10:42;100365.53;;;15.83;70.12
80648;BME280;70012;0.000;0.000;2023-09-19T08:13:16;100354.75;;;15.77;69.76
80648;BME280;70012;0.000;0.000;2023-09-19T08:15:45;100356.97;;;15.80;69.89
80648;BME280;70012;0.000;0.000;2023-09-19T08:18:16;100340.97;;;15.77;68.95
80648;BME280;70012;0.000;0.000;2023-09-19T08:20:52;100356.03;;;15.95;68.45
80648;BME280;70012;0.000;0.000;2023-09-19T08:23:19;100353.28;;;15.95;69.23
80648;BME280;70012;0.000;0.000;2023-09-19T08:25:48;100337.25;;;15.97;69.75
80648;BME280;70012;0.000;0.000;2023-09-19T08:28:18;100328.97;;;15.97;68.78
80648;BME280;70012;0.000;0.000;2023-09-19T08:30:50;100354.81;;;16.11;67.82
80648;BME280;70012;0.000;0.000;2023-09-19T08:33:17;100351.19;;;16.11;66.85
80648;BME280;70012;0.000;0.000;2023-09-19T08:35:47;100374.22;;;16.30;66.92
80648;BME280;70012;0.000;0.000;2023-09-19T08:38:15;100347.75;;;16.24;66.29
80648;BME280;70012;0.000;0.000;2023-09-19T08:40:42;100362.03;;;16.31;65.90
80648;BME280;70012;0.000;0.000;2023-09-19T08:43:10;100362.59;;;16.33;66.00
80648;BME280;70012;0.000;0.000;2023-09-19T08:45:37;100370.25;;;16.42;67.61
80648;BME280;70012;0.000;0.000;2023-09-19T08:50:35;100350.84;;;16.47;66.15
80648;BME280;70012;0.000;0.000;2023-09-19T08:53:10;100344.16;;;16.53;66.01
80648;BME280;70012;0.000;0.000;2023-09-19T08:55:40;100365.47;;;16.72;66.93
80648;BME280;70012;0.000;0.000;2023-09-19T08:58:10;100365.41;;;16.77;64.93
80648;BME280;70012;0.000;0.000;2023-09-19T09:00:37;100359.88;;;16.77;64.97
80648;BME280;70012;0.000;0.000;2023-09-19T09:03:10;100346.59;;;16.79;64.83
80648;BME280;70012;0.000;0.000;2023-09-19T09:05:41;100337.59;;;16.68;64.84
80648;BME280;70012;0.000;0.000;2023-09-19T09:08:10;100346.66;;;16.74;63.69
80648;BME280;70012;0.000;0.000;2023-09-19T09:10:37;100336.13;;;16.76;63.82
80648;BME280;70012;0.000;0.000;2023-09-19T09:13:04;100360.50;;;16.98;62.60
80648;BME280;70012;0.000;0.000;2023-09-19T09:15:36;100355.28;;;16.91;62.63
80648;BME280;70012;0.000;0.000;2023-09-19T09:18:03;100356.41;;;16.90;63.01
80648;BME280;70012;0.000;0.000;2023-09-19T09:20:31;100348.59;;;16.98;64.27
80648;BME280;70012;0.000;0.000;2023-09-19T09:22:58;100358.13;;;17.10;63.64
80648;BME280;70012;0.000;0.000;2023-09-19T09:25:46;100373.16;;;17.23;64.04
80648;BME280;70012;0.000;0.000;2023-09-19T09:28:19;100360.97;;;17.24;63.43
80648;BME280;70012;0.000;0.000;2023-09-19T09:30:48;100365.84;;;17.33;63.70
80648;BME280;70012;0.000;0.000;2023-09-19T09:33:15;100340.78;;;17.24;62.14
80648;BME280;70012;0.000;0.000;2023-09-19T09:35:53;100354.25;;;17.31;61.16
80648;BME280;70012;0.000;0.000;2023-09-19T09:38:25;100337.41;;;17.27;60.80
80648;BME280;70012;0.000;0.000;2023-09-19T09:40:55;100346.47;;;17.33;61.60
80648;BME280;70012;0.000;0.000;2023-09-19T09:43:34;100355.16;;;17.45;60.60
80648;BME280;70012;0.000;0.000;2023-09-19T09:46:16;100355.06;;;17.50;60.11
80648;BME280;70012;0.000;0.000;2023-09-19T09:48:59;100345.88;;;17.55;59.70
80648;BME280;70012;0.000;0.000;2023-09-19T09:51:51;100356.34;;;17.58;59.61
80648;BME280;70012;0.000;0.000;2023-09-19T09:54:28;100346.53;;;17.66;61.17
80648;BME280;70012;0.000;0.000;2023-09-19T09:57:01;100339.19;;;17.75;59.79
80648;BME280;70012;0.000;0.000;2023-09-19T10:02:14;100342.59;;;18.05;58.83
80648;BME280;70012;0.000;0.000;2023-09-19T10:04:42;100338.53;;;18.16;57.84
80648;BME280;70012;0.000;0.000;2023-09-19T10:07:26;100342.00;;;18.22;58.16
80648;BME280;70012;0.000;0.000;2023-09-19T10:10:02;100333.81;;;18.31;58.14
80648;BME280;70012;0.000;0.000;2023-09-19T10:12:51;100338.97;;;18.51;57.45
80648;BME280;70012;0.000;0.000;2023-09-19T10:15:26;100336.00;;;18.62;55.79
80648;BME280;70012;0.000;0.000;2023-09-19T10:17:54;100332.81;;;18.82;57.57
80648;BME280;70012;0.000;0.000;2023-09-19T10:20:23;100335.59;;;18.96;57.54
80648;BME280;70012;0.000;0.000;2023-09-19T10:23:09;100325.13;;;18.93;54.50
80648;BME280;70012;0.000;0.000;2023-09-19T10:25:38;100324.28;;;19.07;55.24
80648;BME280;70012;0.000;0.000;2023-09-19T10:28:07;100329.06;;;19.29;54.91
80648;BME280;70012;0.000;0.000;2023-09-19T10:30:46;100315.25;;;19.38;55.03
80648;BME280;70012;0.000;0.000;2023-09-19T10:33:15;100319.97;;;19.37;54.14
80648;BME280;70012;0.000;0.000;2023-09-19T10:35:48;100324.16;;;19.48;53.36
80648;BME280;70012;0.000;0.000;2023-09-19T10:38:19;100320.25;;;19.72;53.47
80648;BME280;70012;0.000;0.000;2023-09-19T10:40:50;100316.47;;;19.91;53.04
80648;BME280;70012;0.000;0.000;2023-09-19T10:43:25;100323.41;;;20.02;52.42
80648;BME280;70012;0.000;0.000;2023-09-19T10:45:53;100296.25;;;19.99;53.73
80648;BME280;70012;0.000;0.000;2023-09-19T10:48:23;100309.47;;;20.25;50.12
80648;BME280;70012;0.000;0.000;2023-09-19T10:51:10;100310.72;;;20.50;51.79
80648;BME280;70012;0.000;0.000;2023-09-19T10:54:05;100324.94;;;20.80;51.00
80648;BME280;70012;0.000;0.000;2023-09-19T10:56:36;100317.31;;;20.63;47.90
80648;BME280;70012;0.000;0.000;2023-09-19T10:59:11;100326.22;;;20.74;49.36
80648;BME280;70012;0.000;0.000;2023-09-19T11:01:50;100333.47;;;20.92;49.49
80648;BME280;70012;0.000;0.000;2023-09-19T11:04:28;100316.97;;;21.14;48.86
80648;BME280;70012;0.000;0.000;2023-09-19T11:07:08;100288.16;;;21.09;48.71
80648;BME280;70012;0.000;0.000;2023-09-19T11:09:51;100321.25;;;21.37;46.95
80648;BME280;70012;0.000;0.000;2023-09-19T11:15:05;100325.53;;;21.61;46.25
80648;BME280;70012;0.000;0.000;2023-09-19T11:17:38;100298.00;;;21.68;46.90
80648;BME280;70012;0.000;0.000;2023-09-19T11:30:46;100302.47;;;22.17;43.75
80648;BME280;70012;0.000;0.000;2023-09-19T11:33:28;100318.50;;;22.20;46.32
80648;BME280;70012;0.000;0.000;2023-09-19T11:43:51;100316.25;;;22.13;42.39
80648;BME280;70012;0.000;0.000;2023-09-19T11:46:23;100307.16;;;22.34;43.61
80648;BME280;70012;0.000;0.000;2023-09-19T11:48:51;100313.84;;;22.50;45.12
80648;BME280;70012;0.000;0.000;2023-09-19T11:51:23;100320.41;;;22.46;42.51
80648;BME280;70012;0.000;0.000;2023-09-19T11:53:57;100294.88;;;22.26;43.34
80648;BME280;70012;0.000;0.000;2023-09-19T11:56:27;100331.50;;;22.63;43.93
80648;BME280;70012;0.000;0.000;2023-09-19T11:58:55;100302.94;;;22.66;42.30
80648;BME280;70012;0.000;0.000;2023-09-19T12:01:30;100326.59;;;22.60;40.92
80648;BME280;70012;0.000;0.000;2023-09-19T12:04:15;100324.34;;;22.45;40.21
80648;BME280;70012;0.000;0.000;2023-09-19T12:06:42;100310.94;;;22.29;41.92
80648;BME280;70012;0.000;0.000;2023-09-19T12:09:13;100306.78;;;22.53;42.18
80648;BME280;70012;0.000;0.000;2023-09-19T12:11:43;100318.41;;;22.85;41.71
80648;BME280;70012;0.000;0.000;2023-09-19T12:14:22;100320.19;;;22.90;41.73
80648;BME280;70012;0.000;0.000;2023-09-19T12:16:57;100297.78;;;22.77;40.06
80648;BME280;70012;0.000;0.000;2023-09-19T12:19:27;100325.81;;;22.81;40.44
80648;BME280;70012;0.000;0.000;2023-09-19T12:22:00;100294.25;;;22.59;41.46
80648;BME280;70012;0.000;0.000;2023-09-19T12:24:35;100304.66;;;22.80;41.22
80648;BME280;70012;0.000;0.000;2023-09-19T12:27:06;100301.88;;;22.80;39.59
80648;BME280;70012;0.000;0.000;2023-09-19T12:29:47;100320.69;;;23.13;41.25
80648;BME280;70012;0.000;0.000;2023-09-19T12:32:17;100306.59;;;23.09;41.13
80648;BME280;70012;0.000;0.000;2023-09-19T12:34:52;100313.25;;;23.26;41.35
80648;BME280;70012;0.000;0.000;2023-09-19T12:37:21;100298.34;;;23.13;41.29
80648;BME280;70012;0.000;0.000;2023-09-19T12:39:51;100290.75;;;23.01;41.15
80648;BME280;70012;0.000;0.000;2023-09-19T12:42:26;100306.84;;;23.25;42.41
80648;BME280;70012;0.000;0.000;2023-09-19T12:45:02;100296.19;;;22.97;41.41
80648;BME280;70012;0.000;0.000;2023-09-19T12:47:37;100309.94;;;23.02;42.75
80648;BME280;70012;0.000;0.000;2023-09-19T12:50:14;100284.53;;;22.65;41.71
80648;BME280;70012;0.000;0.000;2023-09-19T12:52:47;100300.72;;;22.51;41.30
80648;BME280;70012;0.000;0.000;2023-09-19T12:55:37;100280.75;;;22.31;42.75
80648;BME280;70012;0.000;0.000;2023-09-19T12:58:14;100294.53;;;22.36;44.02
80648;BME280;70012;0.000;0.000;2023-09-19T13:00:45;100303.81;;;22.11;43.80
80648;BME280;70012;0.000;0.000;2023-09-19T13:03:27;100282.69;;;21.92;46.21
80648;BME280;70012;0.000;0.000;2023-09-19T13:05:59;100268.63;;;21.80;44.54
80648;BME280;70012;0.000;0.000;2023-09-19T13:08:29;100293.84;;;21.83;44.90
80648;BME280;70012;0.000;0.000;2023-09-19T13:11:04;100291.88;;;21.93;45.98
80648;BME280;70012;0.000;0.000;2023-09-19T13:13:37;100269.16;;;21.64;45.77
80648;BME280;70012;0.000;0.000;2023-09-19T13:16:05;100267.03;;;21.61;45.16
80648;BME280;70012;0.000;0.000;2023-09-19T13:18:54;100267.19;;;21.38;45.06
80648;BME280;70012;0.000;0.000;2023-09-19T13:21:32;100286.53;;;21.43;45.98
80648;BME280;70012;0.000;0.000;2023-09-19T13:24:24;100251.78;;;21.32;46.16
80648;BME280;70012;0.000;0.000;2023-09-19T13:26:54;100277.00;;;21.36;46.42
80648;BME280;70012;0.000;0.000;2023-09-19T13:29:22;100256.06;;;21.21;47.53
80648;BME280;70012;0.000;0.000;2023-09-19T13:31:51;100241.81;;;21.22;47.55
80648;BME280;70012;0.000;0.000;2023-09-19T13:34:20;100236.59;;;21.03;45.86
80648;BME280;70012;0.000;0.000;2023-09-19T13:36:47;100270.78;;;21.13;46.84
80648;BME280;70012;0.000;0.000;2023-09-19T13:39:17;100237.31;;;20.69;46.00
80648;BME280;70012;0.000;0.000;2023-09-19T13:41:44;100237.53;;;20.81;47.10
80648;BME280;70012;0.000;0.000;2023-09-19T13:44:15;100232.97;;;20.76;47.61
80648;BME280;70012;0.000;0.000;2023-09-19T13:46:43;100222.75;;;20.63;48.39
80648;BME280;70012;0.000;0.000;2023-09-19T13:49:13;100261.13;;;20.84;48.09
80648;BME280;70012;0.000;0.000;2023-09-19T13:51:40;100254.72;;;20.74;47.86
80648;BME280;70012;0.000;0.000;2023-09-19T13:54:11;100262.72;;;20.76;49.17